createdAt,value
2019-03-16T00:01:12.850Z,6.87
2019-03-16T00:03:39.842Z,3.23
2019-03-16T00:06:08.114Z,4.57
2019-03-16T00:08:35.707Z,6.20
2019-03-16T00:11:03.306Z,5.37
2019-03-16T00:13:31.141Z,5.10
2019-03-16T00:15:58.928Z,9.00
2019-03-16T00:18:26.696Z,6.47
2019-03-16T00:20:54.464Z,4.40
2019-03-16T00:23:21.888Z,5.17
2019-03-16T00:25:49.732Z,3.90
2019-03-16T00:28:17.490Z,6.67
2019-03-16T00:30:45.052Z,7.53
2019-03-16T00:33:12.603Z,6.33
2019-03-16T00:35:40.107Z,5.37
2019-03-16T00:38:07.607Z,3.83
2019-03-16T00:40:35.133Z,6.20
2019-03-16T00:43:03.187Z,9.90
2019-03-16T00:45:30.695Z,5.70
2019-03-16T00:47:58.535Z,5.13
2019-03-16T00:50:26.021Z,5.47
2019-03-16T00:52:54.501Z,5.57
2019-03-16T00:55:22.032Z,8.47
2019-03-16T00:57:49.901Z,5.50
2019-03-16T01:00:17.827Z,6.03
2019-03-16T01:02:45.432Z,4.83
2019-03-16T01:05:13.777Z,7.07
2019-03-16T01:07:41.347Z,5.07
2019-03-16T01:10:09.005Z,6.43
2019-03-16T01:12:36.812Z,4.63
2019-03-16T01:15:04.777Z,7.20
2019-03-16T01:17:32.608Z,6.53
2019-03-16T01:20:00.246Z,3.67
2019-03-16T01:22:28.005Z,7.63
2019-03-16T01:24:55.880Z,7.53
2019-03-16T01:27:23.780Z,3.13
2019-03-16T01:29:51.940Z,5.53
2019-03-16T01:32:20.025Z,2.77
2019-03-16T01:34:47.842Z,6.20
2019-03-16T01:37:15.670Z,6.13
2019-03-16T01:39:43.185Z,5.83
2019-03-16T01:42:11.174Z,6.33
2019-03-16T01:44:39.007Z,4.17
2019-03-16T01:47:06.465Z,6.93
2019-03-16T01:49:34.022Z,4.33
2019-03-16T01:52:01.804Z,5.70
2019-03-16T01:54:29.369Z,3.47
2019-03-16T01:56:57.282Z,7.07
2019-03-16T01:59:25.235Z,5.40
2019-03-16T02:01:52.629Z,6.30
2019-03-16T02:04:20.213Z,5.57
2019-03-16T02:06:47.994Z,5.37
2019-03-16T02:09:16.102Z,4.20
2019-03-16T02:11:43.906Z,7.33
2019-03-16T02:14:11.578Z,7.27
2019-03-16T02:16:39.396Z,5.60
2019-03-16T02:19:07.016Z,2.87
2019-03-16T02:21:34.561Z,3.63
2019-03-16T02:24:02.405Z,6.40
2019-03-16T02:26:29.883Z,4.83
2019-03-16T02:28:57.356Z,5.07
2019-03-16T02:31:25.156Z,2.63
2019-03-16T02:33:52.850Z,3.80
2019-03-16T02:36:20.732Z,6.07
2019-03-16T02:38:48.487Z,6.50
2019-03-16T02:41:15.910Z,5.70
2019-03-16T02:43:43.347Z,5.13
2019-03-16T02:46:10.904Z,7.63
2019-03-16T02:48:38.823Z,5.30
2019-03-16T02:51:06.736Z,4.47
2019-03-16T02:53:34.500Z,5.73
2019-03-16T02:56:02.425Z,6.57
2019-03-16T02:58:29.986Z,7.03
2019-03-16T03:00:57.806Z,4.37
2019-03-16T03:03:29.811Z,5.73
2019-03-16T03:05:54.586Z,5.70
2019-03-16T03:08:22.464Z,6.60
2019-03-16T03:16:13.411Z,6.40
2019-03-16T03:18:41.243Z,3.57
2019-03-16T03:21:08.767Z,6.50
2019-03-16T03:23:36.461Z,4.43
2019-03-16T03:26:03.783Z,6.90
2019-03-16T03:28:31.544Z,5.37
2019-03-16T03:30:59.034Z,3.17
2019-03-16T03:33:26.439Z,6.00
2019-03-16T03:35:53.914Z,4.83
2019-03-16T03:38:21.494Z,7.70
2019-03-16T03:40:48.853Z,6.00
2019-03-16T03:43:16.469Z,3.40
2019-03-16T03:45:43.859Z,7.67
2019-03-16T03:48:11.149Z,7.50
2019-03-16T03:50:38.835Z,7.57
2019-03-16T03:53:06.167Z,3.93
2019-03-16T03:55:34.133Z,3.00
2019-03-16T03:58:01.945Z,2.70
2019-03-16T04:00:29.645Z,7.03
2019-03-16T04:02:57.359Z,6.70
2019-03-16T04:05:24.770Z,5.97
2019-03-16T04:07:52.072Z,8.40
2019-03-16T04:10:19.414Z,6.77
2019-03-16T04:12:46.723Z,5.07
2019-03-16T04:15:14.069Z,7.43
2019-03-16T04:17:41.808Z,4.80
2019-03-16T04:20:09.233Z,7.57
2019-03-16T04:22:36.706Z,5.23
2019-03-16T04:25:04.175Z,9.03
2019-03-16T04:27:31.844Z,4.33
2019-03-16T04:29:59.276Z,3.93
2019-03-16T04:32:26.694Z,4.33
2019-03-16T04:34:54.036Z,8.13
2019-03-16T04:37:21.878Z,4.57
2019-03-16T04:39:49.268Z,5.40
2019-03-16T04:42:16.590Z,4.93
2019-03-16T04:44:43.932Z,5.07
2019-03-16T04:47:11.334Z,7.60
2019-03-16T04:49:38.818Z,6.67
2019-03-16T04:52:06.445Z,6.57
2019-03-16T04:54:34.020Z,7.20
2019-03-16T04:57:01.368Z,5.83
2019-03-16T04:59:29.015Z,4.33
2019-03-16T05:01:56.350Z,4.17
2019-03-16T05:04:23.926Z,6.00
2019-03-16T05:06:51.242Z,7.83
2019-03-16T05:09:18.790Z,8.80
2019-03-16T05:11:46.529Z,7.77
2019-03-16T05:14:14.165Z,4.87
2019-03-16T05:16:42.310Z,6.53
2019-03-16T05:19:09.637Z,4.00
2019-03-16T05:21:37.093Z,5.90
2019-03-16T05:24:04.636Z,6.53
2019-03-16T05:26:31.967Z,5.57
2019-03-16T05:28:59.254Z,3.90
2019-03-16T05:31:26.606Z,4.60
2019-03-16T05:33:54.156Z,8.07
2019-03-16T05:36:21.618Z,4.83
2019-03-16T05:38:49.536Z,5.73
2019-03-16T05:41:17.138Z,5.87
2019-03-16T05:43:44.730Z,8.23
2019-03-16T05:46:12.599Z,6.07
2019-03-16T05:48:40.007Z,6.03
2019-03-16T05:51:07.689Z,4.90
2019-03-16T05:53:34.999Z,6.37
2019-03-16T05:56:02.316Z,7.37
2019-03-16T05:58:30.015Z,5.63
2019-03-16T06:00:57.379Z,5.43
2019-03-16T06:03:24.691Z,3.80
2019-03-16T06:05:52.053Z,5.30
2019-03-16T06:08:19.350Z,6.20
2019-03-16T06:10:47.019Z,7.77
2019-03-16T06:13:14.343Z,5.57
2019-03-16T06:15:41.939Z,7.00
2019-03-16T06:18:09.263Z,4.77
2019-03-16T06:20:36.922Z,6.67
2019-03-16T06:23:04.310Z,5.00
2019-03-16T06:25:31.765Z,3.87
2019-03-16T06:27:59.197Z,6.07
2019-03-16T06:30:26.531Z,4.77
2019-03-16T06:32:54.164Z,6.03
2019-03-16T06:35:25.044Z,6.87
2019-03-16T06:37:50.766Z,4.40
2019-03-16T06:40:18.455Z,7.93
2019-03-16T06:42:46.017Z,5.70
2019-03-16T06:45:13.315Z,2.60
2019-03-16T06:47:40.677Z,5.07
2019-03-16T06:50:09.022Z,2.87
2019-03-16T06:52:36.651Z,5.00
2019-03-16T06:55:03.979Z,6.10
2019-03-16T06:57:31.591Z,5.57
2019-03-16T06:59:58.990Z,4.67
2019-03-16T07:02:26.609Z,4.57
2019-03-16T07:04:54.190Z,5.77
2019-03-16T07:07:21.538Z,4.83
2019-03-16T07:09:48.861Z,5.00
2019-03-16T07:12:16.309Z,4.60
2019-03-16T07:14:43.738Z,4.90
2019-03-16T07:17:11.153Z,3.20
2019-03-16T07:19:38.808Z,4.20
2019-03-16T07:22:06.183Z,3.73
2019-03-16T07:24:33.794Z,4.07
2019-03-16T07:27:01.459Z,4.03
2019-03-16T07:29:29.128Z,3.83
2019-03-16T07:31:56.461Z,5.43
2019-03-16T07:34:23.827Z,4.53
2019-03-16T07:36:51.188Z,4.50
2019-03-16T07:39:18.597Z,5.37
2019-03-16T07:41:46.642Z,5.33
2019-03-16T07:44:14.160Z,4.03
2019-03-16T07:46:41.550Z,5.17
2019-03-16T07:49:08.900Z,5.03
2019-03-16T07:51:36.184Z,5.03
2019-03-16T07:54:03.531Z,5.27
2019-03-16T07:56:30.818Z,5.93
2019-03-16T07:58:58.483Z,3.00
2019-03-16T08:01:25.799Z,4.13
2019-03-16T08:03:53.405Z,5.57
2019-03-16T08:06:20.666Z,8.77
2019-03-16T08:08:48.544Z,5.10
2019-03-16T08:11:16.697Z,5.23
2019-03-16T08:13:44.022Z,4.13
2019-03-16T08:16:11.363Z,5.37
2019-03-16T08:18:38.686Z,4.53
2019-03-16T08:21:06.284Z,3.77
2019-03-16T08:23:33.575Z,3.03
2019-03-16T08:26:01.340Z,4.33
2019-03-16T08:28:28.925Z,4.10
2019-03-16T08:30:56.938Z,3.47
2019-03-16T08:33:24.349Z,3.57
2019-03-16T08:35:51.668Z,2.27
2019-03-16T08:38:18.939Z,3.70
2019-03-16T08:40:46.535Z,5.10
2019-03-16T08:43:13.853Z,1.97
2019-03-16T08:45:41.203Z,2.00
2019-03-16T08:48:21.824Z,2.30
2019-03-16T08:50:38.151Z,3.93
2019-03-16T08:53:06.192Z,1.93
2019-03-16T08:55:33.907Z,4.77
2019-03-16T08:58:05.992Z,3.20
2019-03-16T09:00:30.698Z,3.87
2019-03-16T09:02:58.047Z,3.47
2019-03-16T09:05:25.766Z,4.50
2019-03-16T09:07:53.791Z,2.70
2019-03-16T09:10:21.255Z,3.47
2019-03-16T09:12:54.847Z,2.50
2019-03-16T09:15:17.833Z,3.83
2019-03-16T09:17:45.140Z,2.67
2019-03-16T09:20:12.501Z,2.77
2019-03-16T09:22:39.938Z,2.30
2019-03-16T09:25:07.413Z,2.80
2019-03-16T09:27:34.754Z,2.53
2019-03-16T09:30:02.201Z,2.23
2019-03-16T09:32:30.143Z,3.20
2019-03-16T09:34:58.036Z,2.97
2019-03-16T09:37:25.733Z,2.33
2019-03-16T09:39:53.086Z,1.97
2019-03-16T09:42:23.339Z,1.80
2019-03-16T09:44:50.778Z,2.20
2019-03-16T09:47:18.184Z,2.13
2019-03-16T09:49:45.599Z,2.07
2019-03-16T09:52:14.369Z,2.60
2019-03-16T09:54:41.701Z,1.77
2019-03-16T09:57:09.068Z,2.73
2019-03-16T09:59:36.684Z,1.83
2019-03-16T10:02:03.975Z,1.90
2019-03-16T10:04:31.526Z,1.83
2019-03-16T10:06:58.907Z,2.43
2019-03-16T10:09:26.110Z,2.03
2019-03-16T10:11:53.426Z,1.73
2019-03-16T10:14:20.865Z,2.00
2019-03-16T10:16:48.315Z,2.40
2019-03-16T10:19:15.634Z,2.47
2019-03-16T10:21:43.008Z,2.40
2019-03-16T10:24:10.422Z,2.57
2019-03-16T10:26:38.159Z,3.17
2019-03-16T10:29:05.476Z,2.00
2019-03-16T10:31:32.864Z,1.70
2019-03-16T10:34:00.223Z,1.97
2019-03-16T10:36:28.109Z,1.77
2019-03-16T10:38:55.429Z,2.20
2019-03-16T10:41:23.292Z,1.60
2019-03-16T10:43:51.058Z,2.00
2019-03-16T10:46:18.763Z,2.30
2019-03-16T10:48:46.108Z,1.90
2019-03-16T10:51:13.917Z,1.80
2019-03-16T10:53:41.253Z,3.00
2019-03-16T10:56:08.836Z,1.90
2019-03-16T10:58:36.175Z,2.50
2019-03-16T11:01:03.696Z,2.00
2019-03-16T11:03:31.387Z,2.50
2019-03-16T11:05:58.838Z,1.73
2019-03-16T11:08:26.482Z,1.77
2019-03-16T11:10:53.884Z,1.40
2019-03-16T11:13:21.344Z,1.30
2019-03-16T11:15:48.713Z,1.20
2019-03-16T11:18:16.046Z,1.63
2019-03-16T11:20:43.390Z,1.40
2019-03-16T11:23:11.414Z,1.40
2019-03-16T11:25:38.856Z,2.80
2019-03-16T11:28:06.672Z,1.50
2019-03-16T11:30:33.986Z,1.50
2019-03-16T11:33:01.743Z,1.70
2019-03-16T11:35:29.076Z,1.53
2019-03-16T11:37:56.634Z,1.10
2019-03-16T11:40:24.286Z,0.70
2019-03-16T11:42:51.632Z,0.90
2019-03-16T11:45:19.250Z,1.23
2019-03-16T11:47:46.645Z,0.77
2019-03-16T11:50:13.995Z,0.93
2019-03-16T11:52:41.695Z,0.93
2019-03-16T11:55:09.033Z,0.80
2019-03-16T11:57:36.395Z,1.10
2019-03-16T12:00:04.242Z,0.80
2019-03-16T12:02:31.573Z,0.80
2019-03-16T12:04:59.290Z,0.90
2019-03-16T12:07:26.638Z,1.27
2019-03-16T12:09:54.194Z,1.43
2019-03-16T12:12:21.551Z,1.20
2019-03-16T12:14:48.888Z,1.60
2019-03-16T12:17:16.277Z,1.20
2019-03-16T12:19:43.929Z,1.40
2019-03-16T12:22:11.279Z,1.03
2019-03-16T12:24:38.646Z,1.07
2019-03-16T12:27:05.985Z,1.00
2019-03-16T12:29:34.372Z,1.27
2019-03-16T12:32:01.935Z,1.10
2019-03-16T12:34:29.353Z,1.10
2019-03-16T12:36:56.732Z,1.23
2019-03-16T12:39:24.298Z,1.80
2019-03-16T12:41:51.643Z,1.37
2019-03-16T12:44:19.074Z,1.40
2019-03-16T12:46:46.404Z,1.20
2019-03-16T12:49:14.055Z,1.67
2019-03-16T12:51:41.748Z,2.80
2019-03-16T12:54:09.444Z,1.80
2019-03-16T12:56:36.758Z,1.60
2019-03-16T12:59:10.499Z,2.00
2019-03-16T13:01:33.349Z,2.87
2019-03-16T13:04:01.286Z,1.77
2019-03-16T13:06:28.887Z,2.83
2019-03-16T13:08:56.512Z,2.03
2019-03-16T13:11:23.874Z,3.43
2019-03-16T13:13:51.594Z,1.80
2019-03-16T13:16:19.221Z,2.03
2019-03-16T13:18:46.575Z,2.70
2019-03-16T13:21:14.883Z,2.20
2019-03-16T13:23:42.336Z,2.80
2019-03-16T13:26:10.041Z,1.90
2019-03-16T13:28:37.448Z,1.90
2019-03-16T13:31:04.915Z,2.37
2019-03-16T13:33:32.392Z,2.03
2019-03-16T13:35:59.981Z,2.13
2019-03-16T13:38:27.297Z,1.73
2019-03-16T13:40:54.870Z,2.47
2019-03-16T13:43:22.252Z,2.27
2019-03-16T13:45:50.019Z,2.60
2019-03-16T13:48:17.658Z,3.43
2019-03-16T13:50:45.390Z,2.80
2019-03-16T13:53:13.189Z,2.53
2019-03-16T13:55:40.889Z,2.87
2019-03-16T13:58:08.363Z,3.03
2019-03-16T14:00:35.787Z,2.90
2019-03-16T14:03:03.728Z,3.30
2019-03-16T14:05:31.051Z,1.70
2019-03-16T14:07:58.741Z,3.20
2019-03-16T14:10:26.379Z,2.83
2019-03-16T14:12:53.830Z,2.97
2019-03-16T14:15:21.660Z,1.83
2019-03-16T14:17:49.025Z,1.60
2019-03-16T14:20:16.856Z,1.63
2019-03-16T14:22:44.516Z,1.93
2019-03-16T14:25:12.533Z,2.03
2019-03-16T14:27:40.586Z,1.70
2019-03-16T14:30:09.751Z,2.73
2019-03-16T14:32:37.162Z,1.60
2019-03-16T14:35:04.865Z,4.77
2019-03-16T14:37:32.360Z,1.70
2019-03-16T14:40:00.142Z,1.70
2019-03-16T14:42:27.725Z,2.63
2019-03-16T14:44:55.173Z,3.10
2019-03-16T14:47:22.870Z,2.10
2019-03-16T14:49:50.544Z,3.30
2019-03-16T14:52:18.106Z,2.17
2019-03-16T14:54:45.452Z,1.53
2019-03-16T14:57:12.904Z,1.47
2019-03-16T14:59:40.475Z,1.30
2019-03-16T15:02:07.777Z,1.30
2019-03-16T15:04:35.266Z,1.13
2019-03-16T15:07:02.925Z,1.30
2019-03-16T15:09:31.139Z,1.30
2019-03-16T15:11:59.203Z,1.40
2019-03-16T15:14:26.979Z,1.50
2019-03-16T15:16:55.280Z,1.90
2019-03-16T15:19:23.133Z,1.70
2019-03-16T15:21:50.975Z,1.40
2019-03-16T15:24:18.972Z,1.27
2019-03-16T15:26:46.851Z,1.10
2019-03-16T15:29:14.926Z,1.33
2019-03-16T15:31:43.648Z,1.60
2019-03-16T15:34:11.636Z,1.10
2019-03-16T15:36:40.877Z,1.23
2019-03-16T15:39:08.618Z,1.53
2019-03-16T15:41:36.431Z,1.37
2019-03-16T15:44:03.999Z,1.10
2019-03-16T15:46:31.477Z,1.87
2019-03-16T15:48:59.243Z,1.10
2019-03-16T15:51:26.821Z,1.20
2019-03-16T15:53:54.799Z,2.40
2019-03-16T15:56:22.731Z,1.47
2019-03-16T15:58:50.524Z,1.50
2019-03-16T16:01:18.068Z,1.20
2019-03-16T16:03:46.439Z,1.60
2019-03-16T16:06:14.732Z,2.43
2019-03-16T16:08:42.774Z,3.10
2019-03-16T16:11:10.702Z,1.80
2019-03-16T16:13:38.929Z,1.60
2019-03-16T16:16:06.862Z,3.97
2019-03-16T16:18:34.589Z,3.87
2019-03-16T16:21:02.136Z,1.87
2019-03-16T16:23:29.766Z,1.80
2019-03-16T16:25:57.659Z,2.37
2019-03-16T16:28:25.215Z,2.40
2019-03-16T16:30:52.824Z,2.10
2019-03-16T16:33:20.451Z,1.67
2019-03-16T16:35:48.095Z,2.53
2019-03-16T16:38:15.724Z,1.90
2019-03-16T16:40:43.743Z,1.67
2019-03-16T16:43:12.082Z,2.27
2019-03-16T16:45:39.782Z,2.33
2019-03-16T16:48:07.969Z,3.50
2019-03-16T16:50:36.112Z,2.23
2019-03-16T16:53:03.735Z,2.37
2019-03-16T16:55:31.336Z,1.40
2019-03-16T16:57:58.853Z,1.70
2019-03-16T17:00:26.829Z,1.63
2019-03-16T17:02:54.778Z,1.57
2019-03-16T17:05:22.799Z,1.60
2019-03-16T17:07:50.342Z,1.50
2019-03-16T17:10:18.110Z,1.40
2019-03-16T17:12:46.063Z,1.10
2019-03-16T17:15:14.295Z,1.30
2019-03-16T17:17:41.984Z,0.90
2019-03-16T17:20:10.201Z,1.00
2019-03-16T17:22:37.776Z,1.37
2019-03-16T17:25:05.621Z,2.20
2019-03-16T17:27:33.766Z,3.97
2019-03-16T17:30:02.261Z,4.07
2019-03-16T17:32:29.976Z,3.23
2019-03-16T17:34:57.988Z,1.70
2019-03-16T17:37:25.776Z,1.57
2019-03-16T17:39:53.695Z,1.40
2019-03-16T17:42:21.533Z,1.43
2019-03-16T17:44:51.083Z,1.80
2019-03-16T17:47:18.972Z,1.30
2019-03-16T17:49:47.575Z,1.50
2019-03-16T17:52:15.188Z,1.40
2019-03-16T17:54:48.515Z,2.00
2019-03-16T17:57:16.643Z,1.23
2019-03-16T17:59:44.976Z,1.30
2019-03-16T18:02:12.921Z,1.63
2019-03-16T18:04:40.554Z,1.10
2019-03-16T18:07:08.480Z,1.30
2019-03-16T18:09:36.116Z,1.40
2019-03-16T18:12:03.734Z,1.20
2019-03-16T18:14:31.689Z,1.53
2019-03-16T18:16:59.743Z,1.60
2019-03-16T18:19:27.344Z,1.03
2019-03-16T18:21:55.323Z,1.30
2019-03-16T18:24:23.400Z,1.30
2019-03-16T18:26:51.308Z,1.63
2019-03-16T18:29:18.806Z,1.13
2019-03-16T18:31:46.402Z,1.17
2019-03-16T18:34:14.264Z,1.10
2019-03-16T18:36:41.796Z,1.63
2019-03-16T18:39:09.421Z,4.10
2019-03-16T18:41:37.055Z,1.90
2019-03-16T18:44:05.143Z,2.03
2019-03-16T18:46:33.369Z,1.53
2019-03-16T18:49:01.358Z,1.33
2019-03-16T18:51:29.008Z,2.33
2019-03-16T18:53:59.646Z,1.60
2019-03-16T18:56:27.201Z,1.50
2019-03-16T18:58:55.273Z,1.50
2019-03-16T19:01:22.987Z,1.70
2019-03-16T19:03:50.970Z,1.90
2019-03-16T19:06:18.497Z,1.40
2019-03-16T19:08:46.643Z,1.73
2019-03-16T19:11:14.450Z,3.07
2019-03-16T19:13:42.989Z,1.30
2019-03-16T19:16:10.596Z,1.50
2019-03-16T19:18:38.474Z,1.53
2019-03-16T19:21:06.362Z,1.60
2019-03-16T19:23:34.003Z,1.30
2019-03-16T19:26:01.611Z,1.30
2019-03-16T19:28:29.213Z,1.30
2019-03-16T19:30:57.482Z,1.27
2019-03-16T19:33:25.570Z,1.40
2019-03-16T19:35:53.517Z,1.47
2019-03-16T19:38:21.140Z,1.40
2019-03-16T19:40:49.220Z,1.60
2019-03-16T19:43:17.090Z,1.73
2019-03-16T19:45:45.075Z,1.40
2019-03-16T19:48:12.968Z,1.17
2019-03-16T19:50:40.705Z,1.23
2019-03-16T19:53:08.636Z,1.30
2019-03-16T19:55:36.600Z,0.97
2019-03-16T19:58:04.453Z,2.00
2019-03-16T20:00:32.011Z,1.10
2019-03-16T20:02:59.595Z,1.13
2019-03-16T20:05:27.559Z,1.10
2019-03-16T20:07:55.112Z,3.33
2019-03-16T20:10:23.088Z,1.10
2019-03-16T20:12:53.220Z,0.90
2019-03-16T20:15:20.363Z,1.00
2019-03-16T20:17:48.054Z,1.17
2019-03-16T20:20:15.849Z,1.03
2019-03-16T20:22:43.445Z,0.90
2019-03-16T20:25:11.471Z,1.10
2019-03-16T20:27:39.552Z,1.30
2019-03-16T20:30:07.531Z,1.33
2019-03-16T20:32:35.340Z,1.10
2019-03-16T20:35:03.290Z,1.33
2019-03-16T20:37:31.028Z,0.90
2019-03-16T20:39:59.378Z,2.07
2019-03-16T20:42:26.913Z,0.93
2019-03-16T20:44:54.819Z,2.10
2019-03-16T20:47:22.737Z,1.07
2019-03-16T20:49:50.829Z,1.10
2019-03-16T20:52:19.077Z,1.33
2019-03-16T20:54:47.223Z,1.07
2019-03-16T20:57:14.786Z,0.80
2019-03-16T20:59:43.112Z,1.10
2019-03-16T21:02:10.984Z,1.20
2019-03-16T21:04:38.907Z,0.97
2019-03-16T21:07:06.922Z,2.20
2019-03-16T21:09:34.740Z,1.23
2019-03-16T21:12:02.306Z,1.30
2019-03-16T21:14:30.135Z,1.17
2019-03-16T21:16:58.224Z,1.00
2019-03-16T21:19:26.261Z,1.13
2019-03-16T21:21:54.067Z,1.10
2019-03-16T21:24:21.823Z,1.10
2019-03-16T21:26:52.913Z,0.97
2019-03-16T21:29:19.994Z,0.97
2019-03-16T21:31:47.987Z,1.07
2019-03-16T21:34:16.694Z,0.80
2019-03-16T21:36:44.597Z,1.10
2019-03-16T21:39:12.215Z,1.27
2019-03-16T21:41:39.948Z,0.90
2019-03-16T21:44:07.530Z,1.00
2019-03-16T21:46:35.365Z,1.30
2019-03-16T21:49:03.255Z,1.03
2019-03-16T21:51:30.995Z,1.60
2019-03-16T21:53:58.825Z,1.10
2019-03-16T21:56:26.538Z,1.00
2019-03-16T21:58:54.566Z,0.93
2019-03-16T22:01:22.158Z,1.20
2019-03-16T22:03:49.891Z,1.37
2019-03-16T22:06:17.526Z,1.00
2019-03-16T22:08:45.508Z,1.70
2019-03-16T22:11:13.347Z,0.87
2019-03-16T22:13:40.899Z,1.13
2019-03-16T22:16:08.477Z,1.20
2019-03-16T22:18:36.141Z,1.20
2019-03-16T22:21:03.931Z,1.30
2019-03-16T22:23:31.917Z,1.10
2019-03-16T22:25:59.799Z,1.10
2019-03-16T22:28:27.763Z,1.20
2019-03-16T22:30:55.341Z,1.07
2019-03-16T22:33:23.221Z,1.10
2019-03-16T22:35:51.692Z,1.07
2019-03-16T22:38:19.587Z,1.50
2019-03-16T22:40:47.134Z,1.00
2019-03-16T22:43:15.707Z,0.90
2019-03-16T22:45:43.309Z,1.53
2019-03-16T22:48:11.253Z,0.97
2019-03-16T22:50:38.894Z,1.00
2019-03-16T22:53:06.469Z,1.10
2019-03-16T22:55:34.682Z,2.40
2019-03-16T22:58:02.289Z,1.00
2019-03-16T23:00:42.608Z,1.80
2019-03-16T23:03:10.335Z,0.97
2019-03-16T23:05:37.887Z,1.40
2019-03-16T23:08:05.851Z,1.30
2019-03-16T23:10:33.766Z,1.37
2019-03-16T23:13:01.415Z,1.00
2019-03-16T23:15:29.326Z,1.13
2019-03-16T23:17:57.005Z,1.00
2019-03-16T23:20:24.583Z,1.17
2019-03-16T23:22:52.514Z,1.07
2019-03-16T23:25:20.177Z,1.30
2019-03-16T23:27:47.784Z,1.13
2019-03-16T23:30:15.372Z,1.07
2019-03-16T23:32:43.043Z,1.20
2019-03-16T23:35:10.922Z,1.20
2019-03-16T23:37:38.943Z,1.10
2019-03-16T23:40:06.789Z,1.30
2019-03-16T23:42:34.487Z,1.27
2019-03-16T23:45:02.106Z,1.30
2019-03-16T23:47:30.065Z,1.20
2019-03-16T23:49:58.328Z,2.03
2019-03-16T23:52:25.965Z,1.20
2019-03-16T23:54:53.664Z,1.40
2019-03-16T23:57:21.278Z,1.63
2019-03-16T23:59:48.818Z,1.20
